Little Horse Creek, North Carolina
Current Conditions -  °F | °C
As of 8:15 PM on Saturday 25 Oct 2014 (Local Time) from KGEV Reporting Station
Clear Clear  
Wind Chill: 56°   Ceiling: Unl
Heat Index: 56°   Visibility: 10mi
Dew Point: 42°   Wind: 18mph
Humidity: 58%   Direction: 280°W
Pressure: 30.01"   Gusts: 30mph
Location:  36.524°N, 81.538°W
Report Text: KGEV 260015Z AUTO 28016G26KT 10SM CLR 14/06 A3001 RMK AO2 T01360055
Loading
Personal Weather Stations






























Interactive Weather Map
Tropical Storm Tracking
New forecast layout! Learn more

10-Day Weather Forecast

Advertisements
Track Severe Weather on mobile